Wichelen, Belgium
Current Conditions -  °F | °C
As of 8:20 AM on Sunday 26 Oct 2014 (Local Time) from EBAW Reporting Station
Broken Clouds Broken Clouds  
Wind Chill: 12°   Ceiling: 3900
Heat Index: 12°   Visibility: 6mi
Dew Point:   Wind: 6mph
Humidity: 82%   Direction: 190°S
Pressure: 30.24"   Gusts: NA
Location:  51.01°N, 3.98°E
Report Text: EBAW 260620Z 19005KT 9999 BKN039 12/09 Q1024 NOSIG
Loading
Personal Weather Stations






























Interactive Weather Map
Tropical Storm Tracking
New forecast layout! Learn more

10-Day Weather Forecast

Advertisements
Track Severe Weather on mobile